Terminal Aerodrome Forecast
Issued by NWS

Home | Current Version | Previous Version | Text Only | Print | Product List | Glossary On
Versions: 1 2 3 4 5 6 7 8 9 10 11 12 13 14 15 16 17 18
845
FTUS42 KFFC 061738
TAFRYY
TAF
KRYY 061738Z 0618/0718 11007KT 4SM BR VCSH FEW003 BKN005
     FM061900 20010KT 5SM BR VCSH FEW005 BKN008
     FM062100 25013G20KT P6SM FEW015 BKN020
     FM062300 31012G18KT P6SM BKN025
     FM070400 31008KT 6SM BR BKN008
     FM071500 32006KT P6SM SCT015=

USA.gov is the U.S. government's official web portal to all federal, state and local government web resources and services.